sensor_id;sensor_type;location;lat;lon;timestamp;P1;durP1;ratioP1;P2;durP2;ratioP2
15693;SDS011;7947;48.834;9.132;2023-07-28T00:00:39;1.80;;;1.70;;
15693;SDS011;7947;48.834;9.132;2023-07-28T00:03:43;2.03;;;1.73;;
15693;SDS011;7947;48.834;9.132;2023-07-28T00:06:46;1.95;;;1.52;;
15693;SDS011;7947;48.834;9.132;2023-07-28T00:09:49;3.17;;;1.67;;
15693;SDS011;7947;48.834;9.132;2023-07-28T00:12:52;1.67;;;1.30;;
15693;SDS011;7947;48.834;9.132;2023-07-28T00:15:55;2.03;;;1.40;;
15693;SDS011;7947;48.834;9.132;2023-07-28T00:18:59;2.35;;;1.50;;
15693;SDS011;7947;48.834;9.132;2023-07-28T00:22:02;2.80;;;1.65;;
15693;SDS011;7947;48.834;9.132;2023-07-28T00:25:05;1.58;;;1.38;;
15693;SDS011;7947;48.834;9.132;2023-07-28T00:28:08;1.60;;;1.50;;
15693;SDS011;7947;48.834;9.132;2023-07-28T00:31:11;2.13;;;1.67;;
15693;SDS011;7947;48.834;9.132;2023-07-28T00:34:16;2.17;;;1.83;;
15693;SDS011;7947;48.834;9.132;2023-07-28T00:37:19;2.70;;;1.73;;
15693;SDS011;7947;48.834;9.132;2023-07-28T00:40:22;2.60;;;1.83;;
15693;SDS011;7947;48.834;9.132;2023-07-28T00:43:25;3.15;;;1.58;;
15693;SDS011;7947;48.834;9.132;2023-07-28T00:46:28;2.03;;;1.50;;
15693;SDS011;7947;48.834;9.132;2023-07-28T00:49:32;2.38;;;1.95;;
15693;SDS011;7947;48.834;9.132;2023-07-28T00:52:36;3.95;;;1.75;;
15693;SDS011;7947;48.834;9.132;2023-07-28T00:55:39;2.35;;;1.60;;
15693;SDS011;7947;48.834;9.132;2023-07-28T00:58:43;2.15;;;1.52;;
15693;SDS011;7947;48.834;9.132;2023-07-28T01:01:46;1.98;;;1.70;;
15693;SDS011;7947;48.834;9.132;2023-07-28T01:04:51;2.10;;;1.52;;
15693;SDS011;7947;48.834;9.132;2023-07-28T01:07:57;2.28;;;1.55;;
15693;SDS011;7947;48.834;9.132;2023-07-28T01:11:05;2.22;;;1.67;;
15693;SDS011;7947;48.834;9.132;2023-07-28T01:14:08;1.80;;;1.40;;
15693;SDS011;7947;48.834;9.132;2023-07-28T01:17:11;1.80;;;1.38;;
15693;SDS011;7947;48.834;9.132;2023-07-28T01:20:15;1.60;;;1.25;;
15693;SDS011;7947;48.834;9.132;2023-07-28T01:23:19;2.45;;;1.40;;
15693;SDS011;7947;48.834;9.132;2023-07-28T01:26:30;1.98;;;1.67;;
15693;SDS011;7947;48.834;9.132;2023-07-28T01:29:34;1.70;;;1.30;;
15693;SDS011;7947;48.834;9.132;2023-07-28T01:32:38;2.08;;;1.88;;
15693;SDS011;7947;48.834;9.132;2023-07-28T01:35:41;2.35;;;1.70;;
15693;SDS011;7947;48.834;9.132;2023-07-28T01:38:44;2.05;;;1.33;;
15693;SDS011;7947;48.834;9.132;2023-07-28T01:41:48;1.60;;;1.20;;
15693;SDS011;7947;48.834;9.132;2023-07-28T01:44:51;4.90;;;1.65;;
15693;SDS011;7947;48.834;9.132;2023-07-28T01:47:54;1.50;;;1.25;;
15693;SDS011;7947;48.834;9.132;2023-07-28T01:50:57;2.30;;;1.27;;
15693;SDS011;7947;48.834;9.132;2023-07-28T01:53:59;1.30;;;1.20;;
15693;SDS011;7947;48.834;9.132;2023-07-28T01:57:04;2.17;;;1.50;;
15693;SDS011;7947;48.834;9.132;2023-07-28T02:00:08;2.15;;;1.77;;
15693;SDS011;7947;48.834;9.132;2023-07-28T02:03:11;2.20;;;1.60;;
15693;SDS011;7947;48.834;9.132;2023-07-28T02:06:14;1.67;;;1.40;;
15693;SDS011;7947;48.834;9.132;2023-07-28T02:09:17;2.45;;;1.65;;
15693;SDS011;7947;48.834;9.132;2023-07-28T02:12:21;2.15;;;1.80;;
15693;SDS011;7947;48.834;9.132;2023-07-28T02:15:24;2.55;;;1.85;;
15693;SDS011;7947;48.834;9.132;2023-07-28T02:18:27;2.90;;;1.40;;
15693;SDS011;7947;48.834;9.132;2023-07-28T02:21:30;3.17;;;1.90;;
15693;SDS011;7947;48.834;9.132;2023-07-28T02:24:33;3.03;;;1.60;;
15693;SDS011;7947;48.834;9.132;2023-07-28T02:27:37;1.98;;;1.77;;
15693;SDS011;7947;48.834;9.132;2023-07-28T02:30:41;2.15;;;1.60;;
15693;SDS011;7947;48.834;9.132;2023-07-28T02:33:44;2.33;;;1.75;;
15693;SDS011;7947;48.834;9.132;2023-07-28T02:36:47;1.83;;;1.63;;
15693;SDS011;7947;48.834;9.132;2023-07-28T02:39:50;2.63;;;2.10;;
15693;SDS011;7947;48.834;9.132;2023-07-28T02:42:54;1.77;;;1.55;;
15693;SDS011;7947;48.834;9.132;2023-07-28T02:45:58;2.38;;;1.90;;
15693;SDS011;7947;48.834;9.132;2023-07-28T02:49:02;2.40;;;1.80;;
15693;SDS011;7947;48.834;9.132;2023-07-28T02:52:06;2.10;;;1.45;;
15693;SDS011;7947;48.834;9.132;2023-07-28T02:55:10;2.03;;;1.75;;
15693;SDS011;7947;48.834;9.132;2023-07-28T02:58:14;3.75;;;1.67;;
15693;SDS011;7947;48.834;9.132;2023-07-28T03:01:17;2.40;;;1.85;;
15693;SDS011;7947;48.834;9.132;2023-07-28T03:04:20;2.50;;;1.92;;
15693;SDS011;7947;48.834;9.132;2023-07-28T03:07:23;1.60;;;1.42;;
15693;SDS011;7947;48.834;9.132;2023-07-28T03:10:26;1.77;;;1.63;;
15693;SDS011;7947;48.834;9.132;2023-07-28T03:13:30;5.55;;;2.00;;
15693;SDS011;7947;48.834;9.132;2023-07-28T03:16:33;1.80;;;1.63;;
15693;SDS011;7947;48.834;9.132;2023-07-28T03:19:37;2.58;;;1.45;;
15693;SDS011;7947;48.834;9.132;2023-07-28T03:22:40;2.03;;;1.58;;
15693;SDS011;7947;48.834;9.132;2023-07-28T03:25:43;1.45;;;1.33;;
15693;SDS011;7947;48.834;9.132;2023-07-28T03:28:47;2.15;;;1.63;;
15693;SDS011;7947;48.834;9.132;2023-07-28T03:31:50;2.65;;;1.60;;
15693;SDS011;7947;48.834;9.132;2023-07-28T03:34:53;1.90;;;1.50;;
15693;SDS011;7947;48.834;9.132;2023-07-28T03:37:56;3.63;;;1.70;;
15693;SDS011;7947;48.834;9.132;2023-07-28T03:40:58;2.20;;;1.60;;
15693;SDS011;7947;48.834;9.132;2023-07-28T03:44:03;2.50;;;1.73;;
15693;SDS011;7947;48.834;9.132;2023-07-28T03:47:06;1.98;;;1.52;;
15693;SDS011;7947;48.834;9.132;2023-07-28T03:50:09;3.45;;;1.67;;
15693;SDS011;7947;48.834;9.132;2023-07-28T03:53:12;2.13;;;1.73;;
15693;SDS011;7947;48.834;9.132;2023-07-28T03:56:15;2.30;;;1.67;;
15693;SDS011;7947;48.834;9.132;2023-07-28T03:59:19;3.42;;;1.88;;
15693;SDS011;7947;48.834;9.132;2023-07-28T04:02:22;1.80;;;1.60;;
15693;SDS011;7947;48.834;9.132;2023-07-28T04:05:25;2.53;;;1.70;;
15693;SDS011;7947;48.834;9.132;2023-07-28T04:08:28;2.22;;;1.73;;
15693;SDS011;7947;48.834;9.132;2023-07-28T04:11:30;2.75;;;1.75;;
15693;SDS011;7947;48.834;9.132;2023-07-28T04:14:35;2.10;;;1.75;;
15693;SDS011;7947;48.834;9.132;2023-07-28T04:17:38;2.40;;;1.90;;
15693;SDS011;7947;48.834;9.132;2023-07-28T04:20:41;2.03;;;1.77;;
15693;SDS011;7947;48.834;9.132;2023-07-28T04:23:44;2.15;;;1.60;;
15693;SDS011;7947;48.834;9.132;2023-07-28T04:26:46;1.83;;;1.60;;
15693;SDS011;7947;48.834;9.132;2023-07-28T04:29:52;1.83;;;1.50;;
15693;SDS011;7947;48.834;9.132;2023-07-28T04:32:55;2.90;;;1.80;;
15693;SDS011;7947;48.834;9.132;2023-07-28T04:35:58;2.38;;;1.50;;
15693;SDS011;7947;48.834;9.132;2023-07-28T04:39:01;2.25;;;1.65;;
15693;SDS011;7947;48.834;9.132;2023-07-28T04:42:04;2.05;;;1.67;;
15693;SDS011;7947;48.834;9.132;2023-07-28T04:45:08;1.90;;;1.67;;
15693;SDS011;7947;48.834;9.132;2023-07-28T04:48:11;2.17;;;1.67;;
15693;SDS011;7947;48.834;9.132;2023-07-28T04:51:14;2.20;;;1.70;;
15693;SDS011;7947;48.834;9.132;2023-07-28T04:54:17;2.63;;;1.95;;
15693;SDS011;7947;48.834;9.132;2023-07-28T04:57:20;3.78;;;1.65;;
15693;SDS011;7947;48.834;9.132;2023-07-28T05:00:25;1.95;;;1.65;;
15693;SDS011;7947;48.834;9.132;2023-07-28T05:03:28;2.10;;;1.63;;
15693;SDS011;7947;48.834;9.132;2023-07-28T05:06:30;2.50;;;1.80;;
15693;SDS011;7947;48.834;9.132;2023-07-28T05:09:33;2.60;;;1.85;;
15693;SDS011;7947;48.834;9.132;2023-07-28T05:12:36;3.00;;;1.73;;
15693;SDS011;7947;48.834;9.132;2023-07-28T05:15:40;2.55;;;2.10;;
15693;SDS011;7947;48.834;9.132;2023-07-28T05:18:43;2.47;;;1.70;;
15693;SDS011;7947;48.834;9.132;2023-07-28T05:21:46;3.72;;;2.80;;
15693;SDS011;7947;48.834;9.132;2023-07-28T05:24:56;2.60;;;1.90;;
15693;SDS011;7947;48.834;9.132;2023-07-28T05:27:59;2.63;;;2.05;;
15693;SDS011;7947;48.834;9.132;2023-07-28T05:31:06;3.42;;;2.40;;
15693;SDS011;7947;48.834;9.132;2023-07-28T05:34:10;3.28;;;1.98;;
15693;SDS011;7947;48.834;9.132;2023-07-28T05:37:13;3.80;;;2.33;;
15693;SDS011;7947;48.834;9.132;2023-07-28T05:40:16;3.47;;;2.25;;
15693;SDS011;7947;48.834;9.132;2023-07-28T05:43:19;2.20;;;1.85;;
15693;SDS011;7947;48.834;9.132;2023-07-28T05:46:23;2.60;;;2.10;;
15693;SDS011;7947;48.834;9.132;2023-07-28T05:49:26;2.78;;;2.13;;
15693;SDS011;7947;48.834;9.132;2023-07-28T05:52:29;3.20;;;2.20;;
15693;SDS011;7947;48.834;9.132;2023-07-28T05:55:32;3.67;;;2.35;;
15693;SDS011;7947;48.834;9.132;2023-07-28T05:58:34;3.47;;;2.58;;
15693;SDS011;7947;48.834;9.132;2023-07-28T06:01:39;4.45;;;2.53;;
15693;SDS011;7947;48.834;9.132;2023-07-28T06:04:41;3.70;;;2.30;;
15693;SDS011;7947;48.834;9.132;2023-07-28T06:07:44;4.53;;;2.72;;
15693;SDS011;7947;48.834;9.132;2023-07-28T06:10:47;2.63;;;2.10;;
15693;SDS011;7947;48.834;9.132;2023-07-28T06:13:51;3.10;;;2.40;;
15693;SDS011;7947;48.834;9.132;2023-07-28T06:16:55;3.10;;;2.45;;
15693;SDS011;7947;48.834;9.132;2023-07-28T06:19:58;3.95;;;2.50;;
15693;SDS011;7947;48.834;9.132;2023-07-28T06:23:01;3.10;;;2.38;;
15693;SDS011;7947;48.834;9.132;2023-07-28T06:26:04;4.35;;;3.08;;
15693;SDS011;7947;48.834;9.132;2023-07-28T06:29:07;4.75;;;3.03;;
15693;SDS011;7947;48.834;9.132;2023-07-28T06:32:11;2.70;;;2.35;;
15693;SDS011;7947;48.834;9.132;2023-07-28T06:35:14;3.83;;;2.38;;
15693;SDS011;7947;48.834;9.132;2023-07-28T06:38:17;5.10;;;3.17;;
15693;SDS011;7947;48.834;9.132;2023-07-28T06:41:20;4.80;;;3.15;;
15693;SDS011;7947;48.834;9.132;2023-07-28T06:44:23;4.00;;;2.70;;
15693;SDS011;7947;48.834;9.132;2023-07-28T06:47:27;3.35;;;2.33;;
15693;SDS011;7947;48.834;9.132;2023-07-28T06:50:30;3.25;;;2.17;;
15693;SDS011;7947;48.834;9.132;2023-07-28T06:53:33;4.95;;;2.60;;
15693;SDS011;7947;48.834;9.132;2023-07-28T06:56:36;3.22;;;2.65;;
15693;SDS011;7947;48.834;9.132;2023-07-28T06:59:39;4.93;;;2.90;;
15693;SDS011;7947;48.834;9.132;2023-07-28T07:02:43;2.90;;;2.30;;
15693;SDS011;7947;48.834;9.132;2023-07-28T07:05:47;3.75;;;2.45;;
15693;SDS011;7947;48.834;9.132;2023-07-28T07:08:49;4.93;;;2.88;;
15693;SDS011;7947;48.834;9.132;2023-07-28T07:11:52;3.80;;;2.97;;
15693;SDS011;7947;48.834;9.132;2023-07-28T07:14:55;4.70;;;2.70;;
15693;SDS011;7947;48.834;9.132;2023-07-28T07:17:59;4.07;;;2.58;;
15693;SDS011;7947;48.834;9.132;2023-07-28T07:21:02;3.55;;;2.50;;
15693;SDS011;7947;48.834;9.132;2023-07-28T07:24:07;3.20;;;2.50;;
15693;SDS011;7947;48.834;9.132;2023-07-28T07:27:11;3.65;;;3.03;;
15693;SDS011;7947;48.834;9.132;2023-07-28T07:30:14;2.85;;;2.42;;
15693;SDS011;7947;48.834;9.132;2023-07-28T07:33:18;3.13;;;2.72;;
15693;SDS011;7947;48.834;9.132;2023-07-28T07:36:21;3.53;;;2.58;;
15693;SDS011;7947;48.834;9.132;2023-07-28T07:39:24;3.47;;;2.83;;
15693;SDS011;7947;48.834;9.132;2023-07-28T07:42:28;3.50;;;2.63;;
15693;SDS011;7947;48.834;9.132;2023-07-28T07:45:31;5.03;;;2.95;;
15693;SDS011;7947;48.834;9.132;2023-07-28T07:48:36;2.75;;;2.08;;
15693;SDS011;7947;48.834;9.132;2023-07-28T07:51:38;2.75;;;2.28;;
15693;SDS011;7947;48.834;9.132;2023-07-28T07:54:42;3.80;;;2.65;;
15693;SDS011;7947;48.834;9.132;2023-07-28T07:57:45;3.60;;;2.45;;
15693;SDS011;7947;48.834;9.132;2023-07-28T08:00:47;5.20;;;2.13;;
15693;SDS011;7947;48.834;9.132;2023-07-28T08:03:52;2.42;;;1.90;;
15693;SDS011;7947;48.834;9.132;2023-07-28T08:06:55;4.25;;;2.63;;
15693;SDS011;7947;48.834;9.132;2023-07-28T08:09:58;2.22;;;1.88;;
15693;SDS011;7947;48.834;9.132;2023-07-28T08:13:01;2.72;;;2.00;;
15693;SDS011;7947;48.834;9.132;2023-07-28T08:16:05;3.03;;;2.25;;
15693;SDS011;7947;48.834;9.132;2023-07-28T08:19:09;3.17;;;1.88;;
15693;SDS011;7947;48.834;9.132;2023-07-28T08:22:12;2.03;;;1.70;;
15693;SDS011;7947;48.834;9.132;2023-07-28T08:25:15;2.85;;;2.10;;
15693;SDS011;7947;48.834;9.132;2023-07-28T08:28:18;2.33;;;1.80;;
15693;SDS011;7947;48.834;9.132;2023-07-28T08:31:21;4.25;;;1.67;;
15693;SDS011;7947;48.834;9.132;2023-07-28T08:34:25;1.65;;;1.52;;
15693;SDS011;7947;48.834;9.132;2023-07-28T08:37:28;2.03;;;1.75;;
15693;SDS011;7947;48.834;9.132;2023-07-28T08:40:33;3.38;;;1.83;;
15693;SDS011;7947;48.834;9.132;2023-07-28T08:43:36;3.40;;;2.00;;
15693;SDS011;7947;48.834;9.132;2023-07-28T08:46:42;2.03;;;1.70;;
15693;SDS011;7947;48.834;9.132;2023-07-28T08:49:46;3.42;;;1.95;;
15693;SDS011;7947;48.834;9.132;2023-07-28T08:52:51;2.30;;;2.10;;
15693;SDS011;7947;48.834;9.132;2023-07-28T08:55:53;2.90;;;1.75;;
15693;SDS011;7947;48.834;9.132;2023-07-28T08:58:57;3.17;;;2.00;;
15693;SDS011;7947;48.834;9.132;2023-07-28T09:02:01;2.00;;;1.70;;
15693;SDS011;7947;48.834;9.132;2023-07-28T09:05:08;2.17;;;1.98;;
15693;SDS011;7947;48.834;9.132;2023-07-28T09:08:19;2.30;;;1.80;;
15693;SDS011;7947;48.834;9.132;2023-07-28T09:11:23;2.13;;;1.70;;
15693;SDS011;7947;48.834;9.132;2023-07-28T09:14:28;2.85;;;1.60;;
15693;SDS011;7947;48.834;9.132;2023-07-28T09:17:31;1.73;;;1.50;;
15693;SDS011;7947;48.834;9.132;2023-07-28T09:20:36;1.70;;;1.35;;
15693;SDS011;7947;48.834;9.132;2023-07-28T09:23:40;1.77;;;1.50;;
15693;SDS011;7947;48.834;9.132;2023-07-28T09:26:44;2.67;;;1.70;;
15693;SDS011;7947;48.834;9.132;2023-07-28T09:29:47;2.50;;;1.67;;
15693;SDS011;7947;48.834;9.132;2023-07-28T09:32:52;2.58;;;1.50;;
15693;SDS011;7947;48.834;9.132;2023-07-28T09:35:57;2.55;;;2.00;;
15693;SDS011;7947;48.834;9.132;2023-07-28T09:39:12;2.78;;;2.03;;
15693;SDS011;7947;48.834;9.132;2023-07-28T09:42:17;2.38;;;1.80;;
15693;SDS011;7947;48.834;9.132;2023-07-28T09:45:20;2.10;;;1.67;;
15693;SDS011;7947;48.834;9.132;2023-07-28T09:48:38;1.77;;;1.42;;
15693;SDS011;7947;48.834;9.132;2023-07-28T09:51:46;1.70;;;1.40;;
15693;SDS011;7947;48.834;9.132;2023-07-28T09:54:51;2.13;;;1.40;;
15693;SDS011;7947;48.834;9.132;2023-07-28T09:58:01;1.80;;;1.42;;
15693;SDS011;7947;48.834;9.132;2023-07-28T10:01:07;1.75;;;1.63;;
15693;SDS011;7947;48.834;9.132;2023-07-28T10:04:12;2.72;;;1.98;;
15693;SDS011;7947;48.834;9.132;2023-07-28T10:07:17;2.58;;;1.83;;
15693;SDS011;7947;48.834;9.132;2023-07-28T10:10:20;1.95;;;1.63;;
15693;SDS011;7947;48.834;9.132;2023-07-28T10:13:23;2.00;;;1.77;;
15693;SDS011;7947;48.834;9.132;2023-07-28T10:16:29;3.40;;;2.03;;
15693;SDS011;7947;48.834;9.132;2023-07-28T10:19:33;3.05;;;2.15;;
15693;SDS011;7947;48.834;9.132;2023-07-28T10:22:44;2.08;;;1.63;;
15693;SDS011;7947;48.834;9.132;2023-07-28T10:25:48;3.50;;;1.88;;
15693;SDS011;7947;48.834;9.132;2023-07-28T10:29:07;3.08;;;2.00;;
15693;SDS011;7947;48.834;9.132;2023-07-28T10:32:12;4.07;;;2.17;;
15693;SDS011;7947;48.834;9.132;2023-07-28T10:35:29;3.50;;;1.85;;
15693;SDS011;7947;48.834;9.132;2023-07-28T10:38:37;3.35;;;1.98;;
15693;SDS011;7947;48.834;9.132;2023-07-28T10:41:40;2.72;;;1.83;;
15693;SDS011;7947;48.834;9.132;2023-07-28T10:45:03;4.35;;;2.30;;
15693;SDS011;7947;48.834;9.132;2023-07-28T10:48:07;2.60;;;1.90;;
15693;SDS011;7947;48.834;9.132;2023-07-28T10:51:10;3.40;;;2.15;;
15693;SDS011;7947;48.834;9.132;2023-07-28T10:54:15;3.72;;;1.88;;
15693;SDS011;7947;48.834;9.132;2023-07-28T10:57:21;3.30;;;2.30;;
15693;SDS011;7947;48.834;9.132;2023-07-28T11:00:24;2.00;;;1.70;;
15693;SDS011;7947;48.834;9.132;2023-07-28T11:03:27;2.55;;;1.80;;
15693;SDS011;7947;48.834;9.132;2023-07-28T11:06:31;3.50;;;2.40;;
15693;SDS011;7947;48.834;9.132;2023-07-28T11:09:35;2.30;;;1.35;;
15693;SDS011;7947;48.834;9.132;2023-07-28T11:12:39;0.77;;;0.77;;
15693;SDS011;7947;48.834;9.132;2023-07-28T11:15:43;1.08;;;0.90;;
15693;SDS011;7947;48.834;9.132;2023-07-28T11:18:46;1.05;;;0.82;;
15693;SDS011;7947;48.834;9.132;2023-07-28T11:21:49;1.13;;;0.70;;
15693;SDS011;7947;48.834;9.132;2023-07-28T11:24:54;1.13;;;0.60;;
15693;SDS011;7947;48.834;9.132;2023-07-28T11:27:57;1.08;;;0.80;;
15693;SDS011;7947;48.834;9.132;2023-07-28T11:31:03;1.25;;;0.75;;
15693;SDS011;7947;48.834;9.132;2023-07-28T11:34:12;0.80;;;0.60;;
15693;SDS011;7947;48.834;9.132;2023-07-28T11:37:15;0.98;;;0.60;;
15693;SDS011;7947;48.834;9.132;2023-07-28T11:40:21;0.95;;;0.50;;
15693;SDS011;7947;48.834;9.132;2023-07-28T11:43:27;0.98;;;0.88;;
15693;SDS011;7947;48.834;9.132;2023-07-28T11:46:33;0.82;;;0.80;;
15693;SDS011;7947;48.834;9.132;2023-07-28T11:49:45;1.25;;;1.00;;
15693;SDS011;7947;48.834;9.132;2023-07-28T11:52:49;1.23;;;0.90;;
15693;SDS011;7947;48.834;9.132;2023-07-28T11:55:53;1.33;;;1.23;;
15693;SDS011;7947;48.834;9.132;2023-07-28T11:58:57;1.13;;;0.90;;
15693;SDS011;7947;48.834;9.132;2023-07-28T12:02:01;1.38;;;0.80;;
15693;SDS011;7947;48.834;9.132;2023-07-28T12:05:11;1.10;;;0.73;;
15693;SDS011;7947;48.834;9.132;2023-07-28T12:08:32;1.20;;;0.90;;
15693;SDS011;7947;48.834;9.132;2023-07-28T12:11:37;1.40;;;1.02;;
15693;SDS011;7947;48.834;9.132;2023-07-28T12:14:48;1.27;;;1.13;;
15693;SDS011;7947;48.834;9.132;2023-07-28T12:18:13;1.58;;;1.25;;
15693;SDS011;7947;48.834;9.132;2023-07-28T12:21:19;2.47;;;1.23;;
15693;SDS011;7947;48.834;9.132;2023-07-28T12:24:22;2.35;;;1.48;;
15693;SDS011;7947;48.834;9.132;2023-07-28T12:27:27;2.38;;;0.88;;
15693;SDS011;7947;48.834;9.132;2023-07-28T12:30:34;1.50;;;0.95;;
15693;SDS011;7947;48.834;9.132;2023-07-28T12:33:37;2.28;;;1.25;;
15693;SDS011;7947;48.834;9.132;2023-07-28T12:36:40;1.60;;;1.00;;
15693;SDS011;7947;48.834;9.132;2023-07-28T12:39:46;1.38;;;1.20;;
15693;SDS011;7947;48.834;9.132;2023-07-28T12:42:55;1.38;;;1.10;;
15693;SDS011;7947;48.834;9.132;2023-07-28T12:46:01;1.67;;;1.02;;
15693;SDS011;7947;48.834;9.132;2023-07-28T12:49:06;1.17;;;1.02;;
15693;SDS011;7947;48.834;9.132;2023-07-28T12:52:21;1.48;;;1.17;;
15693;SDS011;7947;48.834;9.132;2023-07-28T12:55:44;1.90;;;1.50;;
15693;SDS011;7947;48.834;9.132;2023-07-28T12:58:51;1.73;;;1.30;;
15693;SDS011;7947;48.834;9.132;2023-07-28T13:01:57;1.85;;;1.20;;
15693;SDS011;7947;48.834;9.132;2023-07-28T13:05:00;1.38;;;1.13;;
15693;SDS011;7947;48.834;9.132;2023-07-28T13:08:03;1.30;;;1.10;;
15693;SDS011;7947;48.834;9.132;2023-07-28T13:11:08;1.50;;;1.00;;
15693;SDS011;7947;48.834;9.132;2023-07-28T13:14:16;2.17;;;1.40;;
15693;SDS011;7947;48.834;9.132;2023-07-28T13:17:18;1.20;;;1.10;;
15693;SDS011;7947;48.834;9.132;2023-07-28T13:20:21;3.28;;;1.65;;
15693;SDS011;7947;48.834;9.132;2023-07-28T13:23:24;2.13;;;1.48;;
15693;SDS011;7947;48.834;9.132;2023-07-28T13:26:27;1.90;;;1.40;;
15693;SDS011;7947;48.834;9.132;2023-07-28T13:29:31;2.00;;;1.52;;
15693;SDS011;7947;48.834;9.132;2023-07-28T13:32:34;2.65;;;1.50;;
15693;SDS011;7947;48.834;9.132;2023-07-28T13:35:37;2.40;;;1.73;;
15693;SDS011;7947;48.834;9.132;2023-07-28T13:38:40;2.10;;;1.58;;
15693;SDS011;7947;48.834;9.132;2023-07-28T13:41:43;2.03;;;1.75;;
15693;SDS011;7947;48.834;9.132;2023-07-28T13:44:47;2.30;;;1.70;;
15693;SDS011;7947;48.834;9.132;2023-07-28T13:47:56;2.10;;;1.85;;
15693;SDS011;7947;48.834;9.132;2023-07-28T13:50:59;2.50;;;1.80;;
15693;SDS011;7947;48.834;9.132;2023-07-28T13:54:02;2.50;;;1.73;;
15693;SDS011;7947;48.834;9.132;2023-07-28T13:57:07;3.25;;;2.15;;
15693;SDS011;7947;48.834;9.132;2023-07-28T14:00:12;2.10;;;1.85;;
15693;SDS011;7947;48.834;9.132;2023-07-28T14:03:15;2.42;;;2.00;;
15693;SDS011;7947;48.834;9.132;2023-07-28T14:06:19;2.42;;;2.05;;
15693;SDS011;7947;48.834;9.132;2023-07-28T14:09:22;2.00;;;1.70;;
15693;SDS011;7947;48.834;9.132;2023-07-28T14:12:24;2.72;;;2.13;;
15693;SDS011;7947;48.834;9.132;2023-07-28T14:15:29;3.28;;;1.85;;
15693;SDS011;7947;48.834;9.132;2023-07-28T14:18:31;3.15;;;1.73;;
15693;SDS011;7947;48.834;9.132;2023-07-28T14:21:34;3.85;;;2.10;;
15693;SDS011;7947;48.834;9.132;2023-07-28T14:24:41;4.03;;;2.20;;
15693;SDS011;7947;48.834;9.132;2023-07-28T14:27:43;2.05;;;1.65;;
15693;SDS011;7947;48.834;9.132;2023-07-28T14:30:48;3.33;;;1.85;;
15693;SDS011;7947;48.834;9.132;2023-07-28T14:33:52;2.47;;;2.10;;
15693;SDS011;7947;48.834;9.132;2023-07-28T14:36:55;2.45;;;2.00;;
15693;SDS011;7947;48.834;9.132;2023-07-28T14:39:59;3.30;;;1.85;;
15693;SDS011;7947;48.834;9.132;2023-07-28T14:43:02;2.50;;;1.83;;
15693;SDS011;7947;48.834;9.132;2023-07-28T14:46:06;2.30;;;1.98;;
15693;SDS011;7947;48.834;9.132;2023-07-28T14:49:09;2.50;;;1.85;;
15693;SDS011;7947;48.834;9.132;2023-07-28T14:52:12;3.17;;;2.15;;
15693;SDS011;7947;48.834;9.132;2023-07-28T14:55:15;2.35;;;2.10;;
15693;SDS011;7947;48.834;9.132;2023-07-28T14:58:18;3.33;;;2.10;;
15693;SDS011;7947;48.834;9.132;2023-07-28T15:01:23;2.22;;;1.92;;
15693;SDS011;7947;48.834;9.132;2023-07-28T15:04:26;3.30;;;2.00;;
15693;SDS011;7947;48.834;9.132;2023-07-28T15:07:29;2.00;;;1.80;;
15693;SDS011;7947;48.834;9.132;2023-07-28T15:10:32;2.22;;;1.75;;
15693;SDS011;7947;48.834;9.132;2023-07-28T15:13:34;2.75;;;2.00;;
15693;SDS011;7947;48.834;9.132;2023-07-28T15:16:39;2.90;;;2.10;;
15693;SDS011;7947;48.834;9.132;2023-07-28T15:19:42;2.17;;;1.98;;
15693;SDS011;7947;48.834;9.132;2023-07-28T15:22:46;5.07;;;2.03;;
15693;SDS011;7947;48.834;9.132;2023-07-28T15:25:49;4.20;;;2.05;;
15693;SDS011;7947;48.834;9.132;2023-07-28T15:28:54;2.72;;;2.20;;
15693;SDS011;7947;48.834;9.132;2023-07-28T15:31:59;2.15;;;1.80;;
15693;SDS011;7947;48.834;9.132;2023-07-28T15:35:02;3.75;;;2.28;;
15693;SDS011;7947;48.834;9.132;2023-07-28T15:38:05;2.47;;;2.03;;
15693;SDS011;7947;48.834;9.132;2023-07-28T15:41:08;2.35;;;1.98;;
15693;SDS011;7947;48.834;9.132;2023-07-28T15:44:11;2.88;;;2.03;;
15693;SDS011;7947;48.834;9.132;2023-07-28T15:47:15;2.28;;;1.95;;
15693;SDS011;7947;48.834;9.132;2023-07-28T15:50:19;3.30;;;2.22;;
15693;SDS011;7947;48.834;9.132;2023-07-28T15:53:22;2.67;;;2.17;;
15693;SDS011;7947;48.834;9.132;2023-07-28T15:56:25;2.92;;;2.30;;
15693;SDS011;7947;48.834;9.132;2023-07-28T15:59:28;4.65;;;1.90;;
15693;SDS011;7947;48.834;9.132;2023-07-28T16:02:33;2.90;;;2.33;;
15693;SDS011;7947;48.834;9.132;2023-07-28T16:05:36;4.22;;;2.55;;
15693;SDS011;7947;48.834;9.132;2023-07-28T16:08:39;2.58;;;2.10;;
15693;SDS011;7947;48.834;9.132;2023-07-28T16:11:42;3.08;;;2.17;;
15693;SDS011;7947;48.834;9.132;2023-07-28T16:14:45;2.75;;;2.38;;
15693;SDS011;7947;48.834;9.132;2023-07-28T16:17:49;2.55;;;2.08;;
15693;SDS011;7947;48.834;9.132;2023-07-28T16:20:53;3.70;;;2.70;;
15693;SDS011;7947;48.834;9.132;2023-07-28T16:23:56;2.65;;;2.28;;
15693;SDS011;7947;48.834;9.132;2023-07-28T16:26:59;3.60;;;2.67;;
15693;SDS011;7947;48.834;9.132;2023-07-28T16:30:03;4.00;;;2.25;;
15693;SDS011;7947;48.834;9.132;2023-07-28T16:33:09;2.78;;;2.28;;
15693;SDS011;7947;48.834;9.132;2023-07-28T16:36:12;4.40;;;2.53;;
15693;SDS011;7947;48.834;9.132;2023-07-28T16:39:15;3.10;;;2.22;;
15693;SDS011;7947;48.834;9.132;2023-07-28T16:42:18;3.53;;;3.05;;
15693;SDS011;7947;48.834;9.132;2023-07-28T16:45:21;3.33;;;2.53;;
15693;SDS011;7947;48.834;9.132;2023-07-28T16:48:26;4.15;;;2.80;;
15693;SDS011;7947;48.834;9.132;2023-07-28T16:51:29;4.55;;;2.40;;
15693;SDS011;7947;48.834;9.132;2023-07-28T16:54:31;3.38;;;2.22;;
15693;SDS011;7947;48.834;9.132;2023-07-28T16:57:34;2.78;;;2.50;;
15693;SDS011;7947;48.834;9.132;2023-07-28T17:00:37;2.80;;;2.50;;
15693;SDS011;7947;48.834;9.132;2023-07-28T17:03:41;3.80;;;2.50;;
15693;SDS011;7947;48.834;9.132;2023-07-28T17:06:44;3.65;;;2.75;;
15693;SDS011;7947;48.834;9.132;2023-07-28T17:09:47;3.88;;;2.50;;
15693;SDS011;7947;48.834;9.132;2023-07-28T17:12:50;2.63;;;2.03;;
15693;SDS011;7947;48.834;9.132;2023-07-28T17:15:54;5.70;;;2.20;;
15693;SDS011;7947;48.834;9.132;2023-07-28T17:18:58;3.97;;;2.35;;
15693;SDS011;7947;48.834;9.132;2023-07-28T17:22:01;3.63;;;2.00;;
15693;SDS011;7947;48.834;9.132;2023-07-28T17:25:04;4.47;;;2.60;;
15693;SDS011;7947;48.834;9.132;2023-07-28T17:28:08;2.97;;;2.67;;
15693;SDS011;7947;48.834;9.132;2023-07-28T17:31:12;2.65;;;2.40;;
15693;SDS011;7947;48.834;9.132;2023-07-28T17:34:16;4.00;;;2.90;;
15693;SDS011;7947;48.834;9.132;2023-07-28T17:37:19;3.28;;;2.55;;
15693;SDS011;7947;48.834;9.132;2023-07-28T17:40:22;8.07;;;3.05;;
15693;SDS011;7947;48.834;9.132;2023-07-28T17:43:25;3.90;;;2.67;;
15693;SDS011;7947;48.834;9.132;2023-07-28T17:46:27;4.05;;;3.03;;
15693;SDS011;7947;48.834;9.132;2023-07-28T17:49:32;3.00;;;2.60;;
15693;SDS011;7947;48.834;9.132;2023-07-28T17:52:35;4.80;;;2.80;;
15693;SDS011;7947;48.834;9.132;2023-07-28T17:55:38;3.28;;;2.50;;
15693;SDS011;7947;48.834;9.132;2023-07-28T17:58:41;3.42;;;2.70;;
15693;SDS011;7947;48.834;9.132;2023-07-28T18:01:44;7.35;;;3.28;;
15693;SDS011;7947;48.834;9.132;2023-07-28T18:04:48;3.75;;;2.60;;
15693;SDS011;7947;48.834;9.132;2023-07-28T18:07:51;3.72;;;2.83;;
15693;SDS011;7947;48.834;9.132;2023-07-28T18:10:54;5.03;;;2.58;;
15693;SDS011;7947;48.834;9.132;2023-07-28T18:13:57;4.07;;;3.42;;
15693;SDS011;7947;48.834;9.132;2023-07-28T18:17:00;3.33;;;2.70;;
15693;SDS011;7947;48.834;9.132;2023-07-28T18:20:05;3.92;;;2.85;;
15693;SDS011;7947;48.834;9.132;2023-07-28T18:23:10;3.70;;;2.88;;
15693;SDS011;7947;48.834;9.132;2023-07-28T18:26:13;8.00;;;3.35;;
15693;SDS011;7947;48.834;9.132;2023-07-28T18:29:15;3.13;;;2.75;;
15693;SDS011;7947;48.834;9.132;2023-07-28T18:32:18;3.97;;;2.72;;
15693;SDS011;7947;48.834;9.132;2023-07-28T18:35:23;3.67;;;2.60;;
15693;SDS011;7947;48.834;9.132;2023-07-28T18:38:26;3.80;;;2.83;;
15693;SDS011;7947;48.834;9.132;2023-07-28T18:41:29;3.75;;;2.97;;
15693;SDS011;7947;48.834;9.132;2023-07-28T18:44:32;3.40;;;2.70;;